Time;durP1;ratioP1;P1;durP2;ratioP2;P2;SDS_P1;SDS_P2;PMS_P1;PMS_P2;Temp;Humidity;BMP_temperature;BMP_pressure;BME280_temperature;BME280_humidity;BME280_pressure;Samples;Min_cycle;Max_cycle;Signal;HPM_P1;HPM_P2
2022/03/23 18:35:30;;;;;;;11.47;8.47;;;;;;;11.64;44.66;97194.19;5049707;27;20591;-85
2022/03/23 18:37:57;;;;;;;16.27;9.10;;;;;;;11.37;45.05;97204.28;5063300;28;20252;-84
2022/03/23 18:40:24;;;;;;;15.23;9.07;;;;;;;11.31;45.77;97191.59;5052664;28;20228;-85
2022/03/23 18:42:52;;;;;;;15.17;9.33;;;;;;;11.21;47.21;97202.06;5058055;28;20214;-85
2022/03/23 18:45:19;;;;;;;13.27;8.93;;;;;;;11.19;47.72;97201.44;5054875;28;20217;-84
2022/03/23 18:47:46;;;;;;;12.47;8.87;;;;;;;11.27;45.68;97206.59;5046283;28;20297;-85
2022/03/23 18:50:13;;;;;;;13.17;8.00;;;;;;;11.21;44.90;97196.66;5069294;28;20198;-85
2022/03/23 18:52:42;;;;;;;17.10;8.83;;;;;;;11.22;46.34;97209.13;5061228;28;20233;-86
2022/03/23 18:55:12;;;;;;;20.20;12.80;;;;;;;11.09;46.60;97206.47;5057800;28;20237;-86
2022/03/23 18:57:39;;;;;;;15.70;9.70;;;;;;;11.12;45.36;97208.75;5053260;28;20221;-85
2022/03/23 19:00:08;;;;;;;23.40;14.07;;;;;;;11.24;44.18;97207.03;5061965;28;20229;-86
2022/03/23 19:02:36;;;;;;;16.77;11.03;;;;;;;11.29;42.87;97209.94;5057596;28;20248;-89
2022/03/23 19:05:04;;;;;;;10.80;7.87;;;;;;;11.25;42.19;97215.97;5049749;28;20264;-79
2022/03/23 19:07:31;;;;;;;16.63;9.07;;;;;;;11.15;43.40;97219.09;5058204;28;20304;-81
2022/03/23 19:10:00;;;;;;;12.80;9.27;;;;;;;11.15;43.91;97223.69;5069024;28;20274;-78
2022/03/23 19:12:28;;;;;;;13.23;9.50;;;;;;;11.06;44.32;97219.59;5057093;28;20202;-81
2022/03/23 19:14:55;;;;;;;17.87;11.87;;;;;;;11.01;45.04;97220.19;5049921;28;20226;-79
2022/03/23 19:17:22;;;;;;;23.00;13.53;;;;;;;10.99;45.91;97225.81;5046841;28;20399;-81
2022/03/23 19:19:49;;;;;;;23.03;12.20;;;;;;;10.95;45.68;97226.47;5074560;28;20263;-81
2022/03/23 19:22:16;;;;;;;13.93;10.00;;;;;;;10.88;45.66;97221.06;5074285;28;21018;-79
2022/03/23 19:24:44;;;;;;;16.67;11.20;;;;;;;10.71;45.65;97224.44;5062521;28;20226;-78
2022/03/23 19:27:13;;;;;;;18.73;10.17;;;;;;;10.56;47.09;97220.06;5052251;28;20285;-78
2022/03/23 19:29:40;;;;;;;14.97;9.97;;;;;;;10.42;46.74;97223.81;5052976;28;20317;-80
2022/03/23 19:32:08;;;;;;;12.43;8.67;;;;;;;10.37;46.56;97229.00;5058648;28;20205;-82
2022/03/23 19:34:36;;;;;;;13.90;7.00;;;;;;;10.31;45.59;97223.59;5053777;28;20230;-81
2022/03/23 19:37:05;;;;;;;10.23;7.43;;;;;;;10.35;45.75;97227.56;5053800;28;20297;-81
2022/03/23 19:39:32;;;;;;;10.17;7.20;;;;;;;10.41;45.09;97224.84;5058029;28;20226;-79
2022/03/23 19:42:00;;;;;;;11.03;8.10;;;;;;;10.52;44.34;97224.22;5052400;28;20202;-78
2022/03/23 19:44:29;;;;;;;11.30;7.30;;;;;;;10.53;44.43;97225.91;5071759;28;20205;-78
2022/03/23 19:46:56;;;;;;;8.83;6.53;;;;;;;10.58;44.91;97217.97;5043890;28;20209;-78
2022/03/23 19:49:23;;;;;;;9.33;6.17;;;;;;;10.54;43.39;97226.72;5062376;28;20210;-78
2022/03/23 19:51:52;;;;;;;11.97;6.73;;;;;;;10.48;44.56;97222.97;5043781;28;20210;-79
2022/03/23 19:54:19;;;;;;;9.23;7.00;;;;;;;10.34;43.90;97231.28;5035625;28;20284;-79
2022/03/23 19:56:46;;;;;;;8.10;6.30;;;;;;;10.35;43.55;97220.28;5054936;28;20213;-79
2022/03/23 19:59:13;;;;;;;5.87;4.77;;;;;;;10.42;44.15;97217.56;5038158;28;20214;-79
2022/03/23 20:01:42;;;;;;;8.60;5.93;;;;;;;10.44;44.14;97224.44;5044308;28;20202;-79
2022/03/23 20:04:09;;;;;;;8.17;6.07;;;;;;;10.40;43.63;97227.75;5041302;28;20226;-81
2022/03/23 20:06:36;;;;;;;8.13;5.60;;;;;;;10.36;44.15;97230.03;5050835;28;20198;-81
2022/03/23 20:09:03;;;;;;;6.10;4.60;;;;;;;10.30;43.40;97224.63;5042420;28;20195;-79
2022/03/23 20:11:30;;;;;;;8.17;4.63;;;;;;;10.24;44.38;97220.91;5042016;28;20294;-78
2022/03/23 20:13:58;;;;;;;11.83;6.37;;;;;;;10.16;46.01;97224.59;5039786;28;20230;-80
2022/03/23 20:16:26;;;;;;;8.27;5.23;;;;;;;9.92;45.47;97227.06;5036208;28;20202;-78
2022/03/23 20:18:54;;;;;;;6.77;4.80;;;;;;;9.88;44.77;97227.44;5038165;28;20448;-78
2022/03/23 20:21:21;;;;;;;8.20;6.10;;;;;;;9.87;45.97;97230.34;5038712;28;20245;-78
2022/03/23 20:23:49;;;;;;;7.17;5.23;;;;;;;9.68;46.51;97234.69;5043513;28;20233;-78
2022/03/23 20:26:16;;;;;;;9.03;5.23;;;;;;;9.69;46.49;97227.44;5038753;28;20230;-78
2022/03/23 20:28:43;;;;;;;8.07;5.67;;;;;;;9.65;46.89;97232.38;5045817;28;20206;-78
2022/03/23 20:31:12;;;;;;;8.87;5.70;;;;;;;9.57;47.66;97229.03;5043906;28;20198;-78
2022/03/23 20:33:40;;;;;;;8.97;5.70;;;;;;;9.51;47.16;97238.78;5051876;28;20246;-77
2022/03/23 20:36:08;;;;;;;7.97;5.40;;;;;;;9.52;46.44;97231.53;5050717;28;20248;-78
2022/03/23 20:38:36;;;;;;;5.53;4.47;;;;;;;9.56;45.53;97228.19;5035261;28;20210;-78
2022/03/23 20:41:05;;;;;;;5.27;4.00;;;;;;;9.66;45.44;97223.25;5046930;28;20226;-78
2022/03/23 20:43:34;;;;;;;5.50;4.60;;;;;;;9.71;45.63;97231.56;5045542;28;20263;-78
2022/03/23 20:46:03;;;;;;;7.53;4.60;;;;;;;9.77;45.58;97227.25;5037669;28;20213;-78
2022/03/23 20:48:34;;;;;;;10.33;6.33;;;;;;;9.76;46.27;97230.97;5030475;28;20360;-78
2022/03/23 20:51:01;;;;;;;10.53;6.63;;;;;;;9.64;47.07;97225.31;5035163;28;20217;-78
2022/03/23 20:53:30;;;;;;;6.97;5.17;;;;;;;9.54;46.35;97219.47;5033598;28;20195;-78
2022/03/23 20:55:57;;;;;;;9.30;6.13;;;;;;;9.39;46.78;97224.19;5034439;28;20242;-78
2022/03/23 20:58:25;;;;;;;12.17;6.03;;;;;;;9.29;47.11;97218.34;5037829;28;20202;-78
2022/03/23 21:00:55;;;;;;;7.37;4.43;;;;;;;9.33;45.99;97216.94;5034485;28;20210;-78
2022/03/23 21:03:22;;;;;;;4.73;3.50;;;;;;;9.31;44.42;97219.81;5035594;28;20256;-78
2022/03/23 21:05:53;;;;;;;5.90;4.50;;;;;;;9.34;45.17;97214.03;5040300;28;20231;-78
2022/03/23 21:08:22;;;;;;;6.57;4.43;;;;;;;9.28;46.39;97227.47;5037694;28;20256;-78
2022/03/23 21:10:55;;;;;;;8.90;5.67;;;;;;;9.29;46.83;97226.44;5057526;28;20219;-78
2022/03/23 21:13:25;;;;;;;10.50;5.93;;;;;;;9.11;48.02;97222.41;5038402;28;20217;-78
2022/03/23 21:16:02;;;;;;;10.90;6.90;;;;;;;9.05;48.32;97227.78;5049134;28;20246;-78
2022/03/23 21:18:40;;;;;;;11.07;7.00;;;;;;;9.01;48.33;97219.28;5042639;28;20242;-78
2022/03/23 21:21:12;;;;;;;11.47;7.53;;;;;;;8.97;48.92;97233.31;5058374;28;20202;-78
2022/03/23 21:23:40;;;;;;;11.97;7.00;;;;;;;8.87;49.67;97233.69;5029986;28;20281;-78
2022/03/23 21:26:09;;;;;;;9.87;6.67;;;;;;;8.66;50.18;97233.75;5037663;28;20199;-78
2022/03/23 21:28:36;;;;;;;11.63;6.93;;;;;;;8.53;50.42;97230.97;5040288;28;20213;-78
2022/03/23 21:31:04;;;;;;;12.93;6.47;;;;;;;8.45;50.96;97233.78;5035011;28;20207;-78
2022/03/23 21:33:32;;;;;;;9.83;6.40;;;;;;;8.42;51.27;97232.31;5042294;28;20252;-78
2022/03/23 21:35:59;;;;;;;7.23;5.00;;;;;;;8.37;50.14;97229.38;5041375;28;20223;-78
2022/03/23 21:38:29;;;;;;;9.03;5.50;;;;;;;8.42;50.34;97239.59;5041798;28;20296;-78
2022/03/23 21:40:57;;;;;;;6.43;4.77;;;;;;;8.49;49.64;97237.78;5033650;28;20210;-78
2022/03/23 21:46:07;;;;;;;12.60;6.40;;;;;;;8.38;51.21;97227.53;5036805;28;20199;-78
2022/03/23 21:48:35;;;;;;;9.77;5.60;;;;;;;8.24;51.69;97231.94;5058280;28;20201;-78
2022/03/23 21:51:02;;;;;;;8.87;5.73;;;;;;;8.27;51.82;97223.47;5034011;28;20201;-78
2022/03/23 21:53:29;;;;;;;8.73;4.47;;;;;;;8.32;51.67;97229.16;5041794;28;20206;-77
2022/03/23 21:55:56;;;;;;;6.77;4.33;;;;;;;8.44;50.79;97227.56;5043993;28;20229;-77
2022/03/23 21:58:24;;;;;;;7.20;4.30;;;;;;;8.49;49.25;97229.69;5037786;28;20205;-78
2022/03/23 22:00:51;;;;;;;5.37;3.87;;;;;;;8.41;48.62;97229.84;5032696;28;20253;-77
2022/03/23 22:03:18;;;;;;;4.63;3.50;;;;;;;8.34;47.70;97230.59;5043249;28;20216;-78
2022/03/23 22:05:45;;;;;;;5.60;3.80;;;;;;;8.39;48.43;97230.03;5043924;28;20198;-77
2022/03/23 22:08:13;;;;;;;5.97;3.93;;;;;;;8.43;48.79;97227.75;5044347;28;20202;-78
2022/03/23 22:10:40;;;;;;;4.60;3.20;;;;;;;8.31;48.11;97228.31;5042472;28;20210;-77
2022/03/23 22:13:07;;;;;;;4.53;3.40;;;;;;;8.27;48.31;97224.31;5034046;28;20198;-77
2022/03/23 22:15:35;;;;;;;5.13;3.10;;;;;;;8.27;49.12;97232.38;5027943;28;20229;-77
2022/03/23 22:18:02;;;;;;;8.30;5.80;;;;;;;8.18;50.55;97222.78;5045407;28;20202;-77
2022/03/23 22:20:29;;;;;;;8.40;5.23;;;;;;;8.14;51.47;97223.38;5039810;28;20253;-78
2022/03/23 22:22:56;;;;;;;11.13;6.03;;;;;;;8.06;50.41;97221.66;5060457;28;20472;-77
2022/03/23 22:25:23;;;;;;;5.23;4.00;;;;;;;8.00;50.14;97225.09;5036447;28;20289;-77
2022/03/23 22:27:51;;;;;;;5.77;4.63;;;;;;;8.00;50.23;97225.09;5032496;28;20206;-77
2022/03/23 22:30:18;;;;;;;7.10;4.07;;;;;;;8.02;49.70;97223.06;5044433;28;20209;-77
2022/03/23 22:32:47;;;;;;;4.47;3.60;;;;;;;7.94;49.36;97231.25;5040533;28;20201;-77
2022/03/23 22:35:15;;;;;;;6.57;3.57;;;;;;;7.75;49.59;97226.50;5042208;28;20256;-77
2022/03/23 22:37:42;;;;;;;3.60;3.07;;;;;;;7.75;48.57;97227.34;5037615;28;20210;-77
2022/03/23 22:40:12;;;;;;;5.13;3.43;;;;;;;7.79;49.10;97230.47;5032949;28;20290;-77
2022/03/23 22:42:40;;;;;;;4.80;3.30;;;;;;;7.78;48.89;97226.13;5050763;28;20219;-77
2022/03/23 22:45:11;;;;;;;4.90;3.20;;;;;;;7.76;49.05;97230.84;5036418;28;20210;-77
2022/03/23 22:47:39;;;;;;;7.57;3.97;;;;;;;7.76;49.37;97233.53;5027813;28;20276;-77
2022/03/23 22:50:09;;;;;;;6.00;3.37;;;;;;;7.72;49.18;97232.28;5035144;28;20199;-77
2022/03/23 22:52:39;;;;;;;2.93;2.40;;;;;;;7.71;48.16;97233.28;5052880;28;20210;-77
2022/03/23 22:55:07;;;;;;;4.13;2.60;;;;;;;7.53;47.43;97221.13;5032354;28;20222;-77
2022/03/23 22:57:35;;;;;;;5.50;3.20;;;;;;;7.58;48.42;97224.06;5030063;28;20211;-78
2022/03/23 23:00:07;;;;;;;6.17;4.27;;;;;;;7.54;50.64;97224.63;5029612;28;20203;-77
2022/03/23 23:02:34;;;;;;;4.90;3.57;;;;;;;7.53;50.13;97229.19;5046066;28;20207;-77
2022/03/23 23:05:02;;;;;;;5.57;3.20;;;;;;;7.60;49.07;97219.31;5042677;28;20201;-77
2022/03/23 23:07:31;;;;;;;4.13;3.10;;;;;;;7.67;49.34;97223.94;5054561;28;20214;-77
2022/03/23 23:09:58;;;;;;;6.00;3.93;;;;;;;7.63;49.60;97217.28;5032339;28;20218;-77
2022/03/23 23:12:26;;;;;;;5.37;3.10;;;;;;;7.57;49.47;97219.69;5034586;28;20225;-77
2022/03/23 23:14:53;;;;;;;5.73;3.50;;;;;;;7.56;49.56;97217.22;5027577;28;20228;-77
2022/03/23 23:17:20;;;;;;;5.00;3.47;;;;;;;7.52;49.73;97219.44;5042195;28;20245;-77
2022/03/23 23:19:47;;;;;;;5.37;3.27;;;;;;;7.50;50.39;97216.09;5034914;28;20202;-77
2022/03/23 23:22:14;;;;;;;7.10;4.70;;;;;;;7.46;51.32;97217.53;5042626;28;20288;-77
2022/03/23 23:24:43;;;;;;;7.03;5.30;;;;;;;7.29;52.02;97216.09;5042240;28;20241;-77
2022/03/23 23:27:28;;;;;;;6.40;4.47;;;;;;;7.11;52.63;97211.13;5047462;28;20217;-77
2022/03/23 23:30:10;;;;;;;7.40;4.53;;;;;;;7.14;52.62;97215.28;5053343;28;20206;-77
2022/03/23 23:32:38;;;;;;;11.70;5.00;;;;;;;7.18;53.11;97213.88;5042751;28;20216;-77
2022/03/23 23:35:06;;;;;;;8.20;4.90;;;;;;;7.06;53.90;97215.38;5051337;28;20325;-77
2022/03/23 23:37:33;;;;;;;7.93;5.03;;;;;;;7.03;53.97;97216.59;5041564;28;20329;-77
2022/03/23 23:40:02;;;;;;;7.07;4.33;;;;;;;7.00;52.99;97213.44;5043991;28;20213;-77
2022/03/23 23:42:29;;;;;;;4.90;3.73;;;;;;;7.04;52.44;97218.25;5049447;28;20244;-77
2022/03/23 23:44:57;;;;;;;5.37;3.73;;;;;;;7.10;53.23;97214.81;5037476;28;20199;-77
2022/03/23 23:47:25;;;;;;;5.67;4.20;;;;;;;7.08;52.85;97202.59;5037791;28;20216;-77
2022/03/23 23:49:52;;;;;;;7.50;4.20;;;;;;;7.08;52.96;97213.31;5041860;28;20199;-77
2022/03/23 23:52:20;;;;;;;4.83;3.80;;;;;;;6.99;53.88;97211.75;5044018;28;20221;-77
2022/03/23 23:54:47;;;;;;;6.17;3.50;;;;;;;7.02;53.36;97208.72;5044017;28;20247;-77
2022/03/23 23:57:16;;;;;;;10.27;4.50;;;;;;;6.89;53.15;97212.03;5040722;28;20207;-77
2022/03/23 23:59:44;;;;;;;4.90;3.77;;;;;;;6.86;53.06;97207.06;5041882;28;20202;-77
